createdAt,value
2022-08-17T00:00:34.981Z,23.90
2022-08-17T00:03:11.170Z,23.60
2022-08-17T00:05:51.013Z,23.40
2022-08-17T00:08:23.359Z,23.40
2022-08-17T00:10:51.128Z,23.40
2022-08-17T00:13:25.631Z,23.60
2022-08-17T00:15:55.509Z,23.70
2022-08-17T00:19:01.587Z,23.80
2022-08-17T00:21:10.784Z,23.90
2022-08-17T00:23:38.159Z,23.90
2022-08-17T00:26:04.963Z,24.00
2022-08-17T00:28:33.379Z,24.00
2022-08-17T00:31:00.403Z,24.00
2022-08-17T00:33:30.234Z,24.00
2022-08-17T00:35:58.550Z,24.00
2022-08-17T00:38:26.501Z,24.00
2022-08-17T00:41:02.592Z,23.90
2022-08-17T00:43:32.236Z,23.80
2022-08-17T00:46:00.782Z,23.50
2022-08-17T00:48:30.102Z,23.30
2022-08-17T00:51:31.301Z,23.30
2022-08-17T00:54:14.017Z,23.30
2022-08-17T00:56:59.473Z,23.30
2022-08-17T00:59:33.244Z,23.20
2022-08-17T01:02:01.253Z,23.30
2022-08-17T01:04:29.806Z,23.30
2022-08-17T01:06:58.609Z,23.40
2022-08-17T01:09:25.911Z,23.40
2022-08-17T01:11:52.551Z,23.40
2022-08-17T01:14:22.288Z,23.30
2022-08-17T01:16:51.369Z,23.10
2022-08-17T01:19:24.643Z,22.90
2022-08-17T01:22:06.953Z,22.80
2022-08-17T01:24:35.292Z,22.80
2022-08-17T01:27:02.614Z,22.70
2022-08-17T01:29:39.263Z,22.80
2022-08-17T01:32:07.651Z,22.80
2022-08-17T01:34:42.395Z,22.80
2022-08-17T01:37:11.384Z,22.80
2022-08-17T01:39:43.579Z,22.80
2022-08-17T01:42:31.238Z,22.70
2022-08-17T01:45:07.768Z,22.70
2022-08-17T01:47:36.059Z,22.70
2022-08-17T01:50:16.496Z,22.70
2022-08-17T01:52:49.241Z,22.50
2022-08-17T01:55:23.405Z,22.50
2022-08-17T01:57:52.710Z,22.50
2022-08-17T02:00:19.349Z,22.50
2022-08-17T02:02:46.132Z,22.50
2022-08-17T02:05:13.672Z,22.60
2022-08-17T02:07:59.630Z,22.60
2022-08-17T02:10:33.898Z,22.50
2022-08-17T02:13:02.250Z,22.20
2022-08-17T02:15:29.078Z,22.00
2022-08-17T02:17:55.709Z,21.90
2022-08-17T02:20:42.018Z,21.80
2022-08-17T02:23:11.923Z,21.90
2022-08-17T02:25:43.277Z,21.90
2022-08-17T02:28:10.614Z,21.80
2022-08-17T02:31:02.253Z,21.70
2022-08-17T02:33:24.915Z,21.70
2022-08-17T02:36:09.581Z,21.80
2022-08-17T02:38:37.689Z,21.80
2022-08-17T02:41:04.989Z,21.80
2022-08-17T02:43:32.337Z,21.80
2022-08-17T02:45:58.921Z,21.80
2022-08-17T02:48:30.717Z,21.70
2022-08-17T02:50:58.021Z,21.70
2022-08-17T02:53:24.761Z,21.60
2022-08-17T02:55:52.559Z,21.50
2022-08-17T02:58:34.423Z,21.30
2022-08-17T03:01:01.561Z,21.20
2022-08-17T03:03:28.285Z,21.10
2022-08-17T03:05:54.876Z,21.00
2022-08-17T03:08:23.170Z,20.80
2022-08-17T03:10:51.887Z,20.70
2022-08-17T03:13:18.551Z,20.80
2022-08-17T03:15:46.991Z,20.90
2022-08-17T03:18:24.593Z,21.00
2022-08-17T03:20:56.280Z,21.10
2022-08-17T03:23:25.457Z,21.20
2022-08-17T03:25:53.739Z,21.20
2022-08-17T03:28:22.142Z,21.10
2022-08-17T03:30:49.289Z,20.90
2022-08-17T03:33:16.816Z,20.70
2022-08-17T03:35:43.571Z,20.80
2022-08-17T03:38:12.487Z,20.80
2022-08-17T03:40:57.565Z,20.80
2022-08-17T03:43:30.834Z,20.90
2022-08-17T03:46:28.217Z,21.00
2022-08-17T03:49:19.367Z,21.00
2022-08-17T03:52:04.716Z,20.90
2022-08-17T03:54:50.205Z,20.70
2022-08-17T03:57:16.943Z,20.70
2022-08-17T03:59:45.073Z,20.60
2022-08-17T04:02:18.801Z,20.70
2022-08-17T04:04:45.563Z,20.80
2022-08-17T04:07:12.268Z,20.90
2022-08-17T04:09:38.957Z,20.90
2022-08-17T04:12:05.776Z,21.00
2022-08-17T04:14:52.149Z,20.90
2022-08-17T04:17:28.197Z,20.90
2022-08-17T04:19:56.188Z,20.70
2022-08-17T04:22:31.184Z,20.60
2022-08-17T04:25:16.511Z,20.40
2022-08-17T04:27:43.250Z,20.50
2022-08-17T04:30:10.530Z,20.50
2022-08-17T04:33:07.372Z,20.30
2022-08-17T04:35:50.004Z,20.20
2022-08-17T04:38:24.348Z,20.10
2022-08-17T04:41:10.854Z,20.00
2022-08-17T04:43:39.327Z,19.90
2022-08-17T04:46:10.664Z,20.00
2022-08-17T04:48:40.744Z,20.00
2022-08-17T04:51:09.551Z,19.90
2022-08-17T04:53:36.967Z,20.00
2022-08-17T04:56:04.320Z,20.10
2022-08-17T04:58:30.993Z,20.30
2022-08-17T05:00:57.835Z,20.50
2022-08-17T05:03:24.755Z,20.40
2022-08-17T05:05:51.384Z,20.50
2022-08-17T05:08:20.433Z,20.50
2022-08-17T05:10:48.070Z,20.60
2022-08-17T05:13:18.129Z,20.60
2022-08-17T05:15:47.853Z,20.60
2022-08-17T05:18:15.944Z,20.70
2022-08-17T05:20:42.822Z,20.70
2022-08-17T05:23:16.333Z,20.70
2022-08-17T05:25:47.449Z,20.60
2022-08-17T05:28:16.748Z,20.60
2022-08-17T05:30:45.740Z,20.60
2022-08-17T05:33:19.264Z,20.70
2022-08-17T05:35:48.474Z,20.90
2022-08-17T05:38:17.093Z,20.90
2022-08-17T05:40:44.582Z,21.00
2022-08-17T05:43:27.028Z,21.10
2022-08-17T05:46:15.365Z,21.10
2022-08-17T05:48:45.233Z,21.10
2022-08-17T05:51:14.516Z,21.00
2022-08-17T05:54:00.556Z,21.10
2022-08-17T05:56:58.908Z,21.20
2022-08-17T05:59:50.485Z,21.20
2022-08-17T06:02:26.297Z,21.40
2022-08-17T06:05:17.065Z,21.50
2022-08-17T06:07:46.625Z,21.60
2022-08-17T06:10:23.548Z,21.60
2022-08-17T06:13:03.229Z,21.70
2022-08-17T06:15:39.796Z,21.80
2022-08-17T06:18:09.466Z,21.80
2022-08-17T06:21:09.809Z,21.90
2022-08-17T06:24:10.431Z,22.00
2022-08-17T06:26:43.202Z,22.10
2022-08-17T06:29:18.595Z,22.20
2022-08-17T06:31:46.029Z,22.20
2022-08-17T06:34:12.967Z,22.30
2022-08-17T06:36:58.027Z,22.40
2022-08-17T06:39:28.529Z,22.40
2022-08-17T06:43:00.874Z,22.50
2022-08-17T06:45:37.509Z,22.50
2022-08-17T06:48:25.346Z,22.50
2022-08-17T06:51:00.661Z,22.60
2022-08-17T06:53:35.393Z,22.70
2022-08-17T06:56:09.888Z,22.80
2022-08-17T06:58:38.814Z,22.90
2022-08-17T07:01:20.910Z,23.00
2022-08-17T07:04:12.103Z,23.10
2022-08-17T07:06:56.884Z,23.20
2022-08-17T07:09:33.954Z,23.30
2022-08-17T07:12:22.164Z,23.30
2022-08-17T07:14:59.539Z,23.40
2022-08-17T07:17:47.307Z,23.50
2022-08-17T07:20:22.508Z,23.70
2022-08-17T07:23:00.450Z,23.80
2022-08-17T07:25:28.476Z,23.90
2022-08-17T07:28:00.165Z,24.00
2022-08-17T07:30:56.082Z,24.10
2022-08-17T07:33:26.451Z,24.30
2022-08-17T07:35:53.963Z,24.40
2022-08-17T07:44:15.264Z,24.80
2022-08-17T07:47:10.820Z,24.90
2022-08-17T07:49:41.776Z,25.00
2022-08-17T07:52:47.613Z,25.20
2022-08-17T07:54:58.098Z,25.30
2022-08-17T07:57:33.740Z,25.30
2022-08-17T08:00:01.284Z,25.40
2022-08-17T08:02:38.582Z,25.60
2022-08-17T08:05:13.330Z,25.70
2022-08-17T08:07:51.973Z,25.70
2022-08-17T08:10:42.813Z,25.80
2022-08-17T08:13:32.378Z,26.00
2022-08-17T08:16:13.681Z,26.00
2022-08-17T08:18:54.348Z,26.10
2022-08-17T08:21:29.022Z,26.20
2022-08-17T08:24:12.182Z,26.30
2022-08-17T08:27:00.449Z,26.40
2022-08-17T08:30:04.875Z,26.60
2022-08-17T08:32:50.373Z,26.60
2022-08-17T08:35:30.796Z,26.70
2022-08-17T08:38:03.341Z,26.80
2022-08-17T08:41:13.430Z,26.70
2022-08-17T08:43:55.142Z,26.80
2022-08-17T08:46:50.259Z,26.90
2022-08-17T08:50:03.797Z,27.10
2022-08-17T08:52:56.906Z,27.20
2022-08-17T08:55:56.122Z,27.30
2022-08-17T08:58:50.570Z,27.50
2022-08-17T09:01:35.355Z,27.50
2022-08-17T09:05:02.673Z,27.70
2022-08-17T09:07:36.169Z,27.90
2022-08-17T09:10:22.280Z,28.10
2022-08-17T09:13:15.058Z,28.30
2022-08-17T09:15:49.585Z,28.40
2022-08-17T09:19:00.481Z,28.30
2022-08-17T09:21:35.903Z,28.50
2022-08-17T09:24:26.358Z,28.60
2022-08-17T09:27:02.741Z,28.70
2022-08-17T09:29:36.481Z,28.80
2022-08-17T09:32:14.842Z,28.80
2022-08-17T09:34:50.869Z,29.00
2022-08-17T09:37:33.521Z,29.00
2022-08-17T09:40:08.939Z,29.10
2022-08-17T09:42:50.127Z,29.20
2022-08-17T09:45:39.060Z,29.20
2022-08-17T09:48:08.593Z,29.20
2022-08-17T09:51:07.761Z,29.20
2022-08-17T09:53:38.666Z,29.20
2022-08-17T09:56:46.339Z,29.40
2022-08-17T09:59:45.441Z,29.50
2022-08-17T10:02:53.418Z,29.40
2022-08-17T10:05:46.249Z,29.40
2022-08-17T10:08:22.907Z,29.70
2022-08-17T10:11:08.937Z,29.80
2022-08-17T10:13:59.478Z,29.90
2022-08-17T10:16:59.220Z,30.00
2022-08-17T10:19:39.346Z,30.10
2022-08-17T10:22:39.209Z,30.00
2022-08-17T10:25:42.636Z,29.90
2022-08-17T10:28:22.817Z,29.90
2022-08-17T10:31:10.723Z,29.90
2022-08-17T10:34:17.247Z,29.80
2022-08-17T10:37:04.595Z,30.00
2022-08-17T10:39:52.043Z,30.10
2022-08-17T10:42:33.676Z,30.20
2022-08-17T10:45:30.944Z,30.20
2022-08-17T10:48:06.250Z,30.30
2022-08-17T10:51:07.531Z,30.40
2022-08-17T10:53:40.596Z,30.40
2022-08-17T10:56:18.654Z,30.30
2022-08-17T10:59:01.275Z,30.30
2022-08-17T11:01:34.442Z,30.50
2022-08-17T11:04:21.285Z,30.50
2022-08-17T11:07:06.509Z,30.60
2022-08-17T11:10:03.100Z,30.60
2022-08-17T11:13:07.236Z,30.50
2022-08-17T11:16:08.851Z,30.50
2022-08-17T11:18:48.537Z,30.60
2022-08-17T11:21:41.651Z,30.70
2022-08-17T11:24:17.506Z,30.80
2022-08-17T11:27:00.788Z,30.80
2022-08-17T11:29:38.913Z,30.80
2022-08-17T11:32:14.952Z,30.70
2022-08-17T11:34:44.467Z,30.60
2022-08-17T11:37:36.195Z,30.70
2022-08-17T11:40:27.802Z,30.70
2022-08-17T11:43:25.352Z,30.80
2022-08-17T11:47:10.301Z,30.70
2022-08-17T11:50:11.745Z,30.80
2022-08-17T11:52:38.449Z,30.90
2022-08-17T11:55:33.536Z,31.00
2022-08-17T11:58:00.883Z,30.90
2022-08-17T12:00:49.743Z,30.70
2022-08-17T12:03:54.492Z,30.80
2022-08-17T12:06:54.784Z,31.10
2022-08-17T12:09:24.964Z,31.20
2022-08-17T12:12:12.481Z,31.20
2022-08-17T12:15:08.932Z,31.20
2022-08-17T12:17:41.471Z,31.30
2022-08-17T12:20:33.241Z,31.40
2022-08-17T12:23:13.769Z,31.40
2022-08-17T12:25:56.633Z,31.30
2022-08-17T12:28:28.987Z,31.30
2022-08-17T12:31:02.423Z,31.30
2022-08-17T12:33:29.475Z,31.30
2022-08-17T12:36:04.099Z,31.40
2022-08-17T12:38:34.419Z,31.50
2022-08-17T12:41:22.441Z,31.50
2022-08-17T12:44:15.524Z,31.50
2022-08-17T12:47:04.563Z,31.50
2022-08-17T12:49:37.414Z,31.50
2022-08-17T12:52:20.253Z,31.50
2022-08-17T12:54:49.532Z,31.60
2022-08-17T12:57:21.132Z,31.40
2022-08-17T12:59:53.072Z,31.40
2022-08-17T13:02:48.168Z,31.50
2022-08-17T13:05:22.470Z,31.50
2022-08-17T13:07:49.510Z,31.40
2022-08-17T13:10:32.709Z,31.40
2022-08-17T13:13:04.807Z,31.40
2022-08-17T13:15:44.640Z,31.40
2022-08-17T13:18:36.121Z,31.40
2022-08-17T13:21:03.011Z,31.40
2022-08-17T13:23:32.302Z,31.40
2022-08-17T13:26:05.393Z,31.50
2022-08-17T13:28:36.061Z,31.40
2022-08-17T13:31:28.038Z,31.30
2022-08-17T13:34:16.549Z,31.20
2022-08-17T13:36:46.669Z,31.20
2022-08-17T13:39:20.089Z,31.20
2022-08-17T13:41:48.561Z,31.20
2022-08-17T13:44:37.576Z,31.20
2022-08-17T13:47:15.807Z,31.30
2022-08-17T13:49:48.861Z,31.30
2022-08-17T13:52:38.810Z,31.20
2022-08-17T13:55:26.285Z,31.30
2022-08-17T13:58:03.589Z,31.30
2022-08-17T14:00:36.446Z,31.20
2022-08-17T14:03:04.942Z,31.20
2022-08-17T14:05:32.385Z,31.20
2022-08-17T14:08:02.148Z,31.20
2022-08-17T14:10:35.745Z,31.20
2022-08-17T14:13:02.617Z,31.30
2022-08-17T14:15:55.400Z,31.30
2022-08-17T14:18:17.945Z,31.30
2022-08-17T14:21:02.381Z,31.20
2022-08-17T14:23:35.145Z,31.20
2022-08-17T14:26:02.014Z,31.10
2022-08-17T14:28:28.653Z,31.00
2022-08-17T14:30:55.478Z,31.00
2022-08-17T14:33:24.593Z,31.00
2022-08-17T14:35:53.405Z,31.10
2022-08-17T14:38:20.976Z,31.10
2022-08-17T14:40:49.072Z,31.00
2022-08-17T14:43:15.867Z,30.90
2022-08-17T14:45:43.058Z,30.90
2022-08-17T14:48:10.236Z,30.90
2022-08-17T14:50:42.856Z,30.90
2022-08-17T14:53:11.617Z,31.00
2022-08-17T14:55:40.615Z,31.10
2022-08-17T14:58:08.644Z,31.20
2022-08-17T15:00:35.821Z,31.10
2022-08-17T15:03:02.589Z,31.20
2022-08-17T15:05:33.386Z,31.00
2022-08-17T15:08:01.135Z,30.90
2022-08-17T15:10:29.203Z,31.00
2022-08-17T15:12:56.164Z,30.90
2022-08-17T15:15:23.195Z,31.10
2022-08-17T15:17:51.540Z,31.20
2022-08-17T15:20:21.406Z,31.30
2022-08-17T15:22:55.567Z,31.40
2022-08-17T15:25:24.016Z,31.30
2022-08-17T15:27:51.301Z,31.00
2022-08-17T15:30:18.597Z,30.70
2022-08-17T15:32:45.756Z,30.70
2022-08-17T15:35:18.703Z,30.80
2022-08-17T15:37:46.874Z,30.60
2022-08-17T15:40:13.625Z,30.70
2022-08-17T15:42:40.924Z,30.80
2022-08-17T15:45:13.218Z,30.70
2022-08-17T15:47:40.601Z,30.80
2022-08-17T15:50:08.652Z,30.90
2022-08-17T15:52:40.497Z,30.90
2022-08-17T15:55:10.945Z,31.00
2022-08-17T15:57:37.577Z,31.00
2022-08-17T16:00:07.470Z,31.20
2022-08-17T16:03:45.351Z,31.20
2022-08-17T16:05:25.180Z,31.20
2022-08-17T16:07:53.227Z,30.90
2022-08-17T16:10:20.933Z,31.10
2022-08-17T16:12:48.916Z,31.20
2022-08-17T16:15:16.914Z,31.30
2022-08-17T16:17:43.493Z,31.30
2022-08-17T16:20:19.895Z,31.20
2022-08-17T16:22:48.692Z,31.00
2022-08-17T16:25:20.116Z,30.90
2022-08-17T16:27:49.283Z,30.80
2022-08-17T16:30:17.561Z,30.40
2022-08-17T16:32:44.797Z,30.10
2022-08-17T16:35:17.293Z,29.90
2022-08-17T16:37:45.680Z,30.00
2022-08-17T16:40:16.118Z,30.10
2022-08-17T16:42:43.245Z,30.10
2022-08-17T16:45:15.275Z,30.10
2022-08-17T16:47:42.244Z,30.20
2022-08-17T16:50:11.626Z,30.20
2022-08-17T16:52:39.164Z,30.30
2022-08-17T16:55:08.484Z,30.30
2022-08-17T16:57:37.285Z,30.20
2022-08-17T17:00:16.412Z,30.10
2022-08-17T17:02:47.087Z,30.10
2022-08-17T17:05:32.718Z,30.30
2022-08-17T17:08:20.428Z,30.40
2022-08-17T17:10:49.993Z,30.30
2022-08-17T17:13:40.330Z,30.20
2022-08-17T17:16:18.900Z,30.10
2022-08-17T17:19:14.179Z,30.00
2022-08-17T17:21:48.041Z,29.90
2022-08-17T17:24:23.378Z,29.70
2022-08-17T17:27:19.176Z,29.50
2022-08-17T17:30:01.230Z,29.50
2022-08-17T17:32:38.012Z,29.50
2022-08-17T17:35:11.095Z,29.50
2022-08-17T17:37:39.644Z,29.10
2022-08-17T17:40:37.101Z,28.90
2022-08-17T17:43:34.946Z,28.90
2022-08-17T17:46:26.513Z,28.90
2022-08-17T17:48:50.162Z,28.80
2022-08-17T17:52:07.809Z,28.80
2022-08-17T17:55:00.480Z,28.60
2022-08-17T17:57:51.134Z,28.60
2022-08-17T18:00:23.491Z,28.70
2022-08-17T18:03:27.417Z,28.70
2022-08-17T18:06:04.702Z,28.70
2022-08-17T18:09:11.632Z,28.70
2022-08-17T18:12:04.568Z,28.70
2022-08-17T18:14:52.850Z,28.70
2022-08-17T18:17:20.256Z,28.60
2022-08-17T18:19:47.185Z,28.50
2022-08-17T18:22:20.108Z,28.40
2022-08-17T18:24:53.963Z,28.30
2022-08-17T18:27:23.362Z,28.20
2022-08-17T18:29:53.317Z,28.20
2022-08-17T18:32:24.906Z,28.20
2022-08-17T18:34:59.563Z,28.10
2022-08-17T18:37:33.101Z,28.00
2022-08-17T18:40:16.466Z,28.00
2022-08-17T18:42:45.694Z,28.10
2022-08-17T18:45:13.487Z,28.10
2022-08-17T18:47:55.213Z,28.00
2022-08-17T18:50:35.287Z,27.90
2022-08-17T18:53:37.912Z,27.60
2022-08-17T18:56:19.892Z,27.40
2022-08-17T18:59:09.904Z,27.30
2022-08-17T19:01:59.865Z,26.90
2022-08-17T19:04:32.785Z,26.30
2022-08-17T19:07:22.024Z,26.00
2022-08-17T19:09:53.416Z,25.80
2022-08-17T19:12:48.708Z,25.40
2022-08-17T19:15:21.367Z,25.30
2022-08-17T19:17:57.289Z,25.30
2022-08-17T19:20:34.403Z,25.20
2022-08-17T19:23:28.984Z,25.50
2022-08-17T19:25:59.166Z,25.50
2022-08-17T19:28:44.177Z,25.30
2022-08-17T19:31:23.957Z,25.00
2022-08-17T19:33:50.895Z,24.60
2022-08-17T19:36:21.461Z,24.60
2022-08-17T19:39:00.774Z,24.60
2022-08-17T19:41:44.349Z,24.70
2022-08-17T19:44:39.249Z,24.40
2022-08-17T19:48:04.987Z,24.20
2022-08-17T19:50:23.460Z,24.10
2022-08-17T19:53:09.515Z,24.10
2022-08-17T19:55:56.096Z,24.10
2022-08-17T19:58:51.719Z,24.20
2022-08-17T20:01:41.116Z,24.20
2022-08-17T20:04:32.393Z,24.20
2022-08-17T20:07:24.228Z,24.30
2022-08-17T20:09:58.156Z,24.20
2022-08-17T20:12:30.432Z,24.10
2022-08-17T20:15:23.877Z,23.90
2022-08-17T20:17:50.961Z,23.90
2022-08-17T20:20:26.763Z,23.90
2022-08-17T20:23:11.337Z,23.80
2022-08-17T20:26:19.768Z,23.70
2022-08-17T20:29:05.143Z,23.70
2022-08-17T20:31:49.361Z,23.70
2022-08-17T20:34:37.483Z,23.70
2022-08-17T20:37:27.773Z,23.70
2022-08-17T20:39:57.402Z,23.70
2022-08-17T20:42:23.989Z,23.90
2022-08-17T20:45:26.938Z,23.80
2022-08-17T20:48:26.073Z,23.80
2022-08-17T20:50:51.693Z,23.70
2022-08-17T20:53:46.249Z,23.70
2022-08-17T20:56:44.930Z,23.70
2022-08-17T20:59:20.609Z,23.50
2022-08-17T21:02:03.720Z,23.40
2022-08-17T21:04:54.726Z,23.20
2022-08-17T21:07:42.822Z,23.00
2022-08-17T21:10:21.336Z,22.90
2022-08-17T21:13:13.363Z,22.80
2022-08-17T21:15:58.929Z,22.90
2022-08-17T21:18:53.816Z,22.90
2022-08-17T21:21:50.825Z,23.00
2022-08-17T21:24:35.572Z,23.00
2022-08-17T21:27:20.280Z,23.00
2022-08-17T21:30:01.845Z,23.00
2022-08-17T21:32:40.410Z,23.10
2022-08-17T21:35:12.061Z,23.10
2022-08-17T21:37:48.167Z,23.10
2022-08-17T21:40:18.286Z,23.00
2022-08-17T21:42:51.317Z,22.90
2022-08-17T21:45:31.638Z,22.90
2022-08-17T21:48:19.491Z,22.90
2022-08-17T21:50:59.033Z,22.80
2022-08-17T21:53:33.888Z,22.90
2022-08-17T21:56:00.838Z,22.80
2022-08-17T21:58:31.868Z,22.70
2022-08-17T22:01:20.922Z,22.60
2022-08-17T22:04:16.997Z,22.70
2022-08-17T22:06:52.409Z,22.80
2022-08-17T22:09:29.501Z,22.80
2022-08-17T22:12:15.948Z,22.80
2022-08-17T22:14:52.754Z,22.70
2022-08-17T22:17:36.800Z,22.70
2022-08-17T22:20:07.854Z,22.70
2022-08-17T22:23:17.981Z,22.70
2022-08-17T22:26:01.437Z,22.70
2022-08-17T22:28:39.583Z,22.60
2022-08-17T22:31:08.913Z,22.60
2022-08-17T22:33:41.074Z,22.70
2022-08-17T22:36:13.751Z,22.70
2022-08-17T22:38:43.583Z,22.70
2022-08-17T22:41:31.669Z,22.70
2022-08-17T22:44:07.976Z,22.70
2022-08-17T22:46:40.105Z,22.70
2022-08-17T22:49:07.419Z,22.70
2022-08-17T22:51:34.078Z,22.70
2022-08-17T22:54:34.096Z,22.80
2022-08-17T22:57:22.629Z,22.70
2022-08-17T22:59:52.741Z,22.80
2022-08-17T23:02:22.367Z,22.80
2022-08-17T23:04:53.056Z,22.80
2022-08-17T23:07:21.194Z,22.80
2022-08-17T23:09:48.036Z,22.80
2022-08-17T23:12:18.369Z,22.70
2022-08-17T23:14:51.249Z,22.70
2022-08-17T23:17:18.023Z,22.80
2022-08-17T23:19:44.986Z,22.90
2022-08-17T23:22:12.124Z,22.90
2022-08-17T23:24:43.999Z,22.90
2022-08-17T23:27:11.473Z,22.90
2022-08-17T23:29:41.443Z,22.90
2022-08-17T23:32:11.097Z,23.00
2022-08-17T23:34:39.713Z,22.90
2022-08-17T23:37:07.564Z,22.80
2022-08-17T23:39:34.964Z,22.80
2022-08-17T23:42:07.963Z,22.80
2022-08-17T23:44:36.940Z,22.80
2022-08-17T23:47:04.791Z,22.80
2022-08-17T23:49:32.263Z,22.80
2022-08-17T23:52:01.420Z,22.70
2022-08-17T23:54:33.417Z,22.70
2022-08-17T23:57:04.318Z,22.60
2022-08-17T23:59:31.620Z,22.60
